Time;durP1;ratioP1;P1;durP2;ratioP2;P2;SDS_P1;SDS_P2;PMS_P1;PMS_P2;Temp;Humidity;BMP_temperature;BMP_pressure;BME280_temperature;BME280_humidity;BME280_pressure;Samples;Min_cycle;Max_cycle;Signal;HPM_P1;HPM_P2
2023/01/14 00:02:06;;;;;;;10.77;1.83;;;;;;;7.27;100.00;100271.47;5216094;28;20049;-72
2023/01/14 00:04:36;;;;;;;9.27;1.58;;;;;;;7.25;100.00;100281.91;5208707;28;20094;-72
2023/01/14 00:07:07;;;;;;;6.20;1.60;;;;;;;7.38;100.00;100278.09;5205569;28;20083;-72
2023/01/14 00:09:37;;;;;;;8.95;1.77;;;;;;;7.39;100.00;100288.41;5214665;28;20040;-72
2023/01/14 00:12:07;;;;;;;9.00;1.83;;;;;;;7.48;100.00;100288.19;5208547;28;20037;-72
2023/01/14 00:14:38;;;;;;;5.82;1.65;;;;;;;7.47;100.00;100291.69;5209910;28;20032;-72
2023/01/14 00:17:08;;;;;;;8.07;1.67;;;;;;;7.55;100.00;100289.72;5214410;28;20029;-72
2023/01/14 00:19:39;;;;;;;9.00;1.90;;;;;;;7.48;100.00;100290.78;5221533;28;20514;-72
2023/01/14 00:22:09;;;;;;;4.35;1.15;;;;;;;7.46;100.00;100295.19;5212349;28;20028;-72
2023/01/14 00:24:39;;;;;;;6.03;1.38;;;;;;;7.40;100.00;100297.97;5214973;28;20060;-73
2023/01/14 00:27:11;;;;;;;7.35;1.50;;;;;;;7.37;100.00;100294.59;5200369;28;20025;-71
2023/01/14 00:29:42;;;;;;;11.88;1.92;;;;;;;7.41;100.00;100302.25;5198480;28;20398;-72
2023/01/14 00:32:12;;;;;;;5.78;1.30;;;;;;;7.46;100.00;100309.91;5204048;28;20025;-72
2023/01/14 00:34:42;;;;;;;6.43;1.60;;;;;;;7.40;100.00;100300.56;5203558;28;20102;-72
2023/01/14 00:37:13;;;;;;;7.47;1.45;;;;;;;7.56;100.00;100304.41;5206869;28;20040;-71
2023/01/14 00:39:43;;;;;;;7.20;1.73;;;;;;;7.55;100.00;100313.13;5208822;28;20219;-72
2023/01/14 00:42:13;;;;;;;8.43;1.42;;;;;;;7.58;100.00;100309.59;5208187;28;20055;-72
2023/01/14 00:44:43;;;;;;;9.13;1.60;;;;;;;7.60;100.00;100313.00;5203941;28;20166;-72
2023/01/14 00:47:14;;;;;;;9.68;1.70;;;;;;;7.63;100.00;100320.69;5206590;28;20204;-72
2023/01/14 00:49:44;;;;;;;7.63;1.42;;;;;;;7.67;100.00;100314.53;5205903;28;20067;-72
2023/01/14 00:52:14;;;;;;;6.28;1.60;;;;;;;7.70;100.00;100317.88;5206919;28;20156;-72
2023/01/14 00:54:44;;;;;;;6.30;1.38;;;;;;;7.63;100.00;100325.91;5204943;28;20029;-72
2023/01/14 00:57:16;;;;;;;9.43;1.48;;;;;;;7.61;100.00;100325.97;5206158;28;20078;-72
2023/01/14 00:59:46;;;;;;;7.18;1.58;;;;;;;7.59;100.00;100325.16;5216109;28;20466;-72
2023/01/14 01:02:16;;;;;;;9.82;1.35;;;;;;;7.62;100.00;100332.00;5185330;28;20028;-72
2023/01/14 01:04:46;;;;;;;7.82;1.40;;;;;;;7.66;100.00;100334.47;5196025;28;20037;-72
2023/01/14 01:07:17;;;;;;;5.05;1.30;;;;;;;7.72;100.00;100341.28;5206568;28;20040;-72
2023/01/14 01:09:47;;;;;;;7.07;1.33;;;;;;;7.78;100.00;100339.34;5197519;28;20032;-72
2023/01/14 01:12:18;;;;;;;6.20;1.38;;;;;;;7.81;100.00;100330.59;5201016;28;20206;-72
2023/01/14 01:14:48;;;;;;;5.30;1.13;;;;;;;7.76;100.00;100340.28;5202409;28;20322;-72
2023/01/14 01:17:18;;;;;;;9.32;1.70;;;;;;;7.79;100.00;100335.84;5219731;28;20482;-72
2023/01/14 01:19:50;;;;;;;7.65;1.40;;;;;;;7.78;100.00;100344.56;5221307;28;20025;-72
2023/01/14 01:22:21;;;;;;;5.75;1.50;;;;;;;7.91;100.00;100340.69;5212044;28;20343;-72
2023/01/14 01:24:51;;;;;;;6.25;1.23;;;;;;;7.83;100.00;100336.59;5220816;28;20548;-72
2023/01/14 01:27:21;;;;;;;6.63;1.35;;;;;;;7.94;100.00;100345.81;5213424;28;20605;-72
2023/01/14 01:29:53;;;;;;;6.10;1.60;;;;;;;7.82;100.00;100346.16;5207704;28;20550;-72
2023/01/14 01:32:25;;;;;;;6.78;1.67;;;;;;;7.88;100.00;100345.16;5195541;28;20057;-72
2023/01/14 01:34:55;;;;;;;8.25;1.52;;;;;;;7.76;100.00;100341.16;5214406;28;20024;-72
2023/01/14 01:37:27;;;;;;;7.93;1.75;;;;;;;7.81;100.00;100347.06;5212596;28;20048;-72
2023/01/14 01:39:57;;;;;;;9.63;1.67;;;;;;;7.80;100.00;100342.75;5220882;28;20196;-72
2023/01/14 01:42:33;;;;;;;5.35;1.40;;;;;;;7.75;100.00;100354.19;5220469;28;20037;-72
2023/01/14 01:45:31;;;;;;;7.53;1.70;;;;;;;7.79;100.00;100356.66;5216609;28;20037;-72
2023/01/14 01:48:36;;;;;;;7.47;1.45;;;;;;;7.78;100.00;100360.16;5216882;28;20155;-72
2023/01/14 01:51:16;;;;;;;7.10;1.45;;;;;;;7.77;99.56;100362.78;5213877;28;20029;-72
2023/01/14 01:53:52;;;;;;;11.40;1.55;;;;;;;7.68;99.24;100361.28;5216303;28;20117;-72
2023/01/14 01:56:27;;;;;;;8.95;1.42;;;;;;;7.66;99.82;100370.88;5194647;28;20380;-72
2023/01/14 01:58:58;;;;;;;7.88;1.58;;;;;;;7.63;99.78;100373.56;5212423;28;20028;-72
2023/01/14 02:01:28;;;;;;;5.50;1.33;;;;;;;7.50;100.00;100385.19;5220283;28;20429;-72
2023/01/14 02:03:59;;;;;;;6.18;1.25;;;;;;;7.52;100.00;100383.41;5204893;28;20542;-72
2023/01/14 02:06:29;;;;;;;10.90;1.80;;;;;;;7.42;100.00;100386.28;5204382;28;20071;-72
2023/01/14 02:09:00;;;;;;;7.00;1.40;;;;;;;7.50;100.00;100390.38;5218273;28;20544;-72
2023/01/14 02:11:41;;;;;;;7.35;1.42;;;;;;;7.51;100.00;100396.47;5215537;28;20028;-73
2023/01/14 02:14:39;;;;;;;8.27;1.90;;;;;;;7.52;100.00;100393.81;5215525;28;20037;-72
2023/01/14 02:17:18;;;;;;;7.25;1.15;;;;;;;7.49;99.95;100406.06;5217591;28;20043;-72
2023/01/14 02:20:04;;;;;;;6.22;1.38;;;;;;;7.48;100.00;100415.59;5212120;28;20462;-72
2023/01/14 02:23:07;;;;;;;5.97;1.58;;;;;;;7.35;100.00;100411.56;5214634;28;20248;-71
2023/01/14 02:26:12;;;;;;;8.48;1.52;;;;;;;7.35;100.00;100418.53;5217753;28;20060;-72
2023/01/14 02:29:05;;;;;;;8.68;1.65;;;;;;;7.35;100.00;100426.34;5207528;28;20025;-72
2023/01/14 02:31:56;;;;;;;8.57;1.38;;;;;;;7.41;100.00;100416.66;5220611;28;20394;-72
2023/01/14 02:34:55;;;;;;;9.93;1.90;;;;;;;7.51;100.00;100417.25;5218300;28;20029;-72
2023/01/14 02:37:50;;;;;;;10.43;1.55;;;;;;;7.58;100.00;100427.47;5212140;28;20052;-72
2023/01/14 02:40:32;;;;;;;9.07;1.60;;;;;;;7.61;100.00;100416.97;5242776;22;20116;-73
2023/01/14 02:46:10;;;;;;;10.02;1.98;;;;;;;7.53;100.00;100431.91;5231444;28;20580;-75
2023/01/14 02:48:40;;;;;;;9.60;1.30;;;;;;;7.53;100.00;100424.09;5210720;28;20111;-73
2023/01/14 02:51:12;;;;;;;8.50;1.48;;;;;;;7.48;100.00;100430.31;5214785;28;20120;-73
2023/01/14 02:53:43;;;;;;;6.78;1.23;;;;;;;7.56;100.00;100437.03;5235351;28;20020;-73
2023/01/14 02:56:13;;;;;;;8.65;1.50;;;;;;;7.49;100.00;100435.50;5212307;28;20047;-73
2023/01/14 02:58:47;;;;;;;8.93;1.60;;;;;;;7.41;100.00;100428.78;5227834;28;20231;-73
2023/01/14 03:01:42;;;;;;;9.02;1.58;;;;;;;7.45;100.00;100436.47;5228435;28;20526;-73
2023/01/14 03:04:45;;;;;;;9.85;1.50;;;;;;;7.49;100.00;100445.06;5207926;28;20024;-72
2023/01/14 03:07:30;;;;;;;10.43;1.70;;;;;;;7.43;100.00;100432.19;5234902;28;20236;-71
2023/01/14 03:10:25;;;;;;;9.98;1.67;;;;;;;7.43;100.00;100430.47;5231204;28;20033;-74
2023/01/14 03:13:07;;;;;;;8.30;1.40;;;;;;;7.42;100.00;100423.56;5199850;28;20055;-73
2023/01/14 03:15:51;;;;;;;8.45;1.48;;;;;;;7.40;100.00;100435.75;5228707;28;20581;-74
2023/01/14 03:18:31;;;;;;;8.02;1.30;;;;;;;7.45;100.00;100428.66;5228457;28;20025;-73
2023/01/14 03:21:04;;;;;;;12.85;1.83;;;;;;;7.46;100.00;100422.56;5222381;28;20535;-73
2023/01/14 03:23:42;;;;;;;8.75;1.50;;;;;;;7.45;100.00;100428.66;5225362;28;20040;-73
2023/01/14 03:26:14;;;;;;;10.60;1.65;;;;;;;7.51;100.00;100423.31;5231313;28;20028;-73
2023/01/14 03:28:47;;;;;;;12.65;2.00;;;;;;;7.50;100.00;100423.34;5230316;28;20032;-75
2023/01/14 03:31:25;;;;;;;10.75;1.83;;;;;;;7.52;100.00;100425.00;5230677;28;20635;-73
2023/01/14 03:34:04;;;;;;;8.57;1.40;;;;;;;7.50;100.00;100419.00;5230584;28;20551;-73
2023/01/14 03:36:36;;;;;;;11.20;1.73;;;;;;;7.58;100.00;100418.78;5233318;28;20071;-74
2023/01/14 03:39:21;;;;;;;8.05;1.60;;;;;;;7.58;100.00;100427.47;5213708;28;20379;-75
2023/01/14 03:44:57;;;;;;;9.98;1.63;;;;;;;7.55;100.00;100432.72;5227922;28;20051;-72
2023/01/14 03:47:31;;;;;;;9.45;1.30;;;;;;;7.50;100.00;100428.56;5227008;28;20399;-73
2023/01/14 03:50:07;;;;;;;8.60;1.40;;;;;;;7.50;100.00;100439.78;5232539;28;20021;-75
2023/01/14 03:52:56;;;;;;;8.93;1.65;;;;;;;7.55;100.00;100437.09;5233246;28;20154;-75
2023/01/14 03:55:32;;;;;;;6.50;1.52;;;;;;;7.51;100.00;100441.50;5221422;28;20040;-72
2023/01/14 03:58:32;;;;;;;13.65;1.77;;;;;;;7.56;100.00;100442.22;5224835;28;20497;-73
2023/01/14 04:01:10;;;;;;;11.05;1.58;;;;;;;7.55;100.00;100447.47;5230673;28;20490;-72
2023/01/14 04:03:41;;;;;;;6.22;1.50;;;;;;;7.61;100.00;100440.38;5226776;28;20040;-75
2023/01/14 04:06:13;;;;;;;11.73;2.20;;;;;;;7.61;100.00;100439.50;5225825;28;20044;-72
2023/01/14 04:08:43;;;;;;;12.93;1.92;;;;;;;7.69;100.00;100450.59;5230875;28;20474;-72
2023/01/14 04:11:13;;;;;;;12.27;2.05;;;;;;;7.66;100.00;100445.47;5233769;28;20020;-73
2023/01/14 04:16:32;;;;;;;15.52;2.20;;;;;;;7.73;100.00;100449.59;5227021;28;20047;-75
2023/01/14 04:19:02;;;;;;;8.77;2.10;;;;;;;7.70;100.00;100442.72;5211739;28;20025;-74
2023/01/14 04:21:33;;;;;;;6.85;1.85;;;;;;;7.79;100.00;100447.72;5209055;28;20029;-73
2023/01/14 04:24:03;;;;;;;10.43;2.10;;;;;;;7.74;100.00;100446.13;5228128;28;20448;-75
2023/01/14 04:26:34;;;;;;;11.38;1.92;;;;;;;7.69;100.00;100458.41;5229856;28;20209;-73
2023/01/14 04:29:04;;;;;;;8.88;1.90;;;;;;;7.66;100.00;100458.47;5230991;28;20070;-73
2023/01/14 04:31:34;;;;;;;10.63;2.05;;;;;;;7.66;100.00;100453.28;5225922;28;20025;-73
2023/01/14 04:34:04;;;;;;;13.02;1.98;;;;;;;7.62;100.00;100457.69;5226041;28;20032;-74
2023/01/14 04:36:35;;;;;;;14.23;2.40;;;;;;;7.62;100.00;100452.50;5231691;28;20060;-75
2023/01/14 04:39:05;;;;;;;10.18;1.80;;;;;;;7.62;100.00;100451.63;5211928;28;20112;-73
2023/01/14 04:44:24;;;;;;;16.08;2.60;;;;;;;7.61;100.00;100450.78;5226727;28;20097;-73
2023/01/14 04:46:55;;;;;;;11.65;2.30;;;;;;;7.65;100.00;100455.00;5223320;28;20099;-74
2023/01/14 04:49:25;;;;;;;15.15;2.50;;;;;;;7.64;100.00;100455.03;5226758;28;20032;-74
2023/01/14 04:51:55;;;;;;;10.95;2.60;;;;;;;7.63;100.00;100451.59;5228897;28;20037;-73
2023/01/14 04:54:26;;;;;;;8.68;2.03;;;;;;;7.70;100.00;100449.69;5225440;28;20032;-73
2023/01/14 04:56:56;;;;;;;11.13;2.70;;;;;;;7.57;100.00;100453.50;5211992;28;20025;-73
2023/01/14 04:59:26;;;;;;;12.55;2.40;;;;;;;7.57;100.00;100449.16;5229922;28;20040;-72
2023/01/14 05:01:57;;;;;;;16.70;2.95;;;;;;;7.63;100.00;100454.19;5214107;28;20104;-73
2023/01/14 05:04:27;;;;;;;10.65;2.15;;;;;;;7.58;100.00;100461.28;5227965;28;20039;-73
2023/01/14 05:06:58;;;;;;;15.00;2.67;;;;;;;7.62;100.00;100459.44;5212081;28;20028;-73
2023/01/14 05:09:29;;;;;;;13.30;2.45;;;;;;;7.54;100.00;100457.00;5229340;28;20060;-73
2023/01/14 05:12:00;;;;;;;14.20;2.85;;;;;;;7.38;100.00;100460.06;5206242;28;20552;-74
2023/01/14 05:14:30;;;;;;;14.95;3.35;;;;;;;7.45;100.00;100453.78;5207684;28;20036;-73
2023/01/14 05:17:00;;;;;;;16.08;2.92;;;;;;;7.39;100.00;100446.16;5225974;28;20024;-73
2023/01/14 05:19:31;;;;;;;13.82;2.53;;;;;;;7.34;100.00;100443.66;5230999;28;20384;-73
2023/01/14 05:22:01;;;;;;;14.68;2.83;;;;;;;7.24;100.00;100437.91;5213670;28;20081;-73
2023/01/14 05:24:31;;;;;;;17.80;3.13;;;;;;;7.16;100.00;100439.81;5215620;28;20125;-73
2023/01/14 05:27:02;;;;;;;17.50;3.47;;;;;;;7.12;100.00;100439.03;5208021;28;20028;-73
2023/01/14 05:29:32;;;;;;;14.38;2.85;;;;;;;7.11;100.00;100439.06;5223597;28;20068;-74
2023/01/14 05:32:02;;;;;;;16.98;3.72;;;;;;;7.06;100.00;100448.69;5227538;28;20413;-74
2023/01/14 05:34:33;;;;;;;20.27;3.30;;;;;;;7.05;100.00;100447.00;5222718;28;20036;-73
2023/01/14 05:37:03;;;;;;;15.50;2.90;;;;;;;7.02;100.00;100441.88;5226967;28;20021;-72
2023/01/14 05:39:33;;;;;;;17.52;3.10;;;;;;;7.01;100.00;100445.38;5205109;28;20303;-75
2023/01/14 05:47:41;;;;;;;17.10;2.85;;;;;;;7.01;100.00;100437.56;5231014;28;20145;-72
2023/01/14 05:50:13;;;;;;;14.10;2.78;;;;;;;7.04;100.00;100443.56;5209035;28;20061;-73
2023/01/14 05:52:43;;;;;;;16.38;3.00;;;;;;;7.10;100.00;100446.00;5198639;28;20036;-75
2023/01/14 05:55:13;;;;;;;15.30;2.80;;;;;;;7.12;100.00;100439.03;5231598;28;20024;-73
2023/01/14 05:57:44;;;;;;;16.17;3.17;;;;;;;7.12;100.00;100439.03;5223707;28;20056;-72
2023/01/14 06:08:41;;;;;;;20.48;3.40;;;;;;;7.21;100.00;100437.94;5235890;28;20090;-74
2023/01/14 06:11:12;;;;;;;19.00;3.42;;;;;;;7.25;100.00;100435.25;5214548;28;20036;-73
2023/01/14 06:13:43;;;;;;;15.65;3.30;;;;;;;7.32;100.00;100436.81;5228232;28;20067;-73
2023/01/14 06:16:14;;;;;;;15.10;2.83;;;;;;;7.23;100.00;100442.22;5231700;28;20028;-73
2023/01/14 06:18:45;;;;;;;15.65;3.30;;;;;;;7.14;100.00;100439.84;5214525;28;20493;-73
2023/01/14 06:21:17;;;;;;;13.98;3.00;;;;;;;7.09;100.00;100433.06;5235923;28;20128;-72
2023/01/14 06:23:48;;;;;;;13.15;3.03;;;;;;;7.21;100.00;100437.94;5227288;28;20078;-74
2023/01/14 06:26:21;;;;;;;24.15;3.75;;;;;;;7.16;100.00;100437.22;5221599;28;20028;-73
2023/01/14 06:28:51;;;;;;;13.02;2.55;;;;;;;7.11;100.00;100434.72;5220620;28;20025;-72
2023/01/14 06:31:21;;;;;;;11.50;2.60;;;;;;;7.22;100.00;100429.25;5210235;28;20025;-72
2023/01/14 06:33:51;;;;;;;14.85;2.67;;;;;;;6.98;100.00;100430.72;5226904;28;20048;-73
2023/01/14 06:36:22;;;;;;;17.00;2.90;;;;;;;6.92;100.00;100433.44;5236019;28;20494;-72
2023/01/14 06:38:53;;;;;;;13.93;2.50;;;;;;;6.96;100.00;100437.66;5230972;28;20024;-72
2023/01/14 06:41:24;;;;;;;14.52;2.55;;;;;;;6.96;100.00;100419.47;5232899;28;20540;-73
2023/01/14 06:43:54;;;;;;;14.65;2.50;;;;;;;6.81;100.00;100425.06;5211805;28;20111;-73
2023/01/14 06:46:24;;;;;;;12.70;2.30;;;;;;;6.92;100.00;100422.22;5226305;28;20083;-73
2023/01/14 06:48:54;;;;;;;14.38;2.58;;;;;;;6.92;100.00;100417.84;5215547;28;20017;-73
2023/01/14 06:51:25;;;;;;;16.88;2.47;;;;;;;6.81;100.00;100421.59;5231971;28;20071;-74
2023/01/14 06:53:56;;;;;;;20.17;2.90;;;;;;;6.78;100.00;100416.47;5237155;28;20020;-73
2023/01/14 06:56:26;;;;;;;21.13;2.83;;;;;;;6.73;100.00;100413.13;5226387;28;20031;-72
2023/01/14 06:58:56;;;;;;;13.68;2.63;;;;;;;6.70;100.00;100405.41;5221188;28;20082;-72
2023/01/14 07:01:26;;;;;;;15.73;1.98;;;;;;;6.72;100.00;100406.22;5227795;28;20501;-72
2023/01/14 07:03:57;;;;;;;18.75;2.58;;;;;;;6.74;100.00;100414.84;5222507;28;20037;-74
2023/01/14 07:06:27;;;;;;;13.10;2.28;;;;;;;6.70;100.00;100415.78;5225689;28;20028;-72
2023/01/14 07:08:57;;;;;;;15.70;2.20;;;;;;;6.60;100.00;100416.91;5222539;28;20087;-73
2023/01/14 07:11:28;;;;;;;17.58;2.35;;;;;;;6.57;100.00;100410.00;5226323;28;20037;-73
2023/01/14 07:13:58;;;;;;;10.75;1.95;;;;;;;6.57;100.00;100415.22;5219803;28;20048;-73
2023/01/14 07:16:28;;;;;;;17.67;2.50;;;;;;;6.60;100.00;100409.09;5230040;28;20062;-72
2023/01/14 07:18:59;;;;;;;24.02;3.03;;;;;;;6.67;100.00;100414.13;5216499;28;20074;-72
2023/01/14 07:21:29;;;;;;;10.70;1.88;;;;;;;6.68;100.00;100404.56;5231270;28;20024;-75
2023/01/14 07:23:59;;;;;;;11.35;2.40;;;;;;;6.74;100.00;100400.09;5209633;28;20391;-75
2023/01/14 07:26:29;;;;;;;10.20;1.77;;;;;;;6.78;100.00;100398.31;5226853;28;20052;-75
2023/01/14 07:29:00;;;;;;;12.02;1.70;;;;;;;6.94;100.00;100386.66;5229010;28;20470;-73
2023/01/14 07:31:30;;;;;;;16.10;2.72;;;;;;;6.88;100.00;100381.59;5210156;28;20032;-72
2023/01/14 07:34:00;;;;;;;13.02;2.20;;;;;;;6.87;100.00;100382.47;5225883;28;20025;-74
2023/01/14 07:36:31;;;;;;;12.48;2.10;;;;;;;6.93;100.00;100382.34;5228605;28;20461;-73
2023/01/14 07:39:01;;;;;;;11.23;2.03;;;;;;;6.95;100.00;100388.38;5208364;28;20021;-72
2023/01/14 07:41:31;;;;;;;12.18;2.00;;;;;;;6.97;100.00;100387.41;5222505;28;20465;-73
2023/01/14 07:44:04;;;;;;;10.27;2.20;;;;;;;6.99;100.00;100387.41;5221868;28;20494;-73
2023/01/14 07:46:34;;;;;;;13.65;1.90;;;;;;;7.06;100.00;100388.94;5227673;28;20029;-75
2023/01/14 07:49:04;;;;;;;18.75;2.20;;;;;;;7.12;100.00;100397.44;5225515;28;20028;-73
2023/01/14 07:51:35;;;;;;;18.48;2.55;;;;;;;7.15;100.00;100388.72;5225169;28;20106;-75
2023/01/14 07:54:05;;;;;;;11.93;1.92;;;;;;;7.09;100.00;100381.09;5226967;28;20372;-74
2023/01/14 07:56:35;;;;;;;11.68;2.35;;;;;;;7.15;100.00;100375.75;5226666;28;20529;-74
2023/01/14 07:59:06;;;;;;;10.88;2.00;;;;;;;7.22;100.00;100367.75;5208856;28;20108;-76
2023/01/14 08:01:36;;;;;;;11.65;1.98;;;;;;;7.56;100.00;100368.59;5212769;28;20024;-73
2023/01/14 08:04:07;;;;;;;16.83;2.45;;;;;;;7.80;97.57;100341.88;5220950;28;21311;-72
2023/01/14 08:06:37;;;;;;;14.95;2.15;;;;;;;7.88;95.90;100353.78;5222362;28;20037;-72
2023/01/14 08:09:07;;;;;;;13.02;2.08;;;;;;;7.87;95.03;100348.66;5221971;28;20106;-73
2023/01/14 08:11:37;;;;;;;10.52;2.05;;;;;;;8.05;95.69;100346.34;5223209;28;20034;-73
2023/01/14 08:14:08;;;;;;;13.95;2.30;;;;;;;8.12;93.89;100342.69;5224719;28;20025;-74
2023/01/14 08:16:38;;;;;;;10.00;1.95;;;;;;;8.17;93.77;100340.78;5230641;28;20075;-74
2023/01/14 08:19:10;;;;;;;18.83;2.30;;;;;;;8.09;93.86;100342.78;5230765;28;20442;-73
2023/01/14 08:21:41;;;;;;;8.65;1.60;;;;;;;8.21;93.93;100339.84;5228792;28;20025;-73
2023/01/14 08:24:11;;;;;;;14.90;2.30;;;;;;;8.14;93.83;100338.28;5230399;28;20078;-73
2023/01/14 08:26:41;;;;;;;17.35;2.08;;;;;;;8.06;93.46;100336.81;5228885;28;20556;-75
2023/01/14 08:29:12;;;;;;;11.60;2.10;;;;;;;7.78;95.30;100335.88;5231205;28;20051;-73
2023/01/14 08:31:43;;;;;;;10.07;1.77;;;;;;;7.82;95.72;100345.31;5229648;28;20155;-73
2023/01/14 08:34:13;;;;;;;15.65;2.08;;;;;;;7.52;96.40;100341.81;5227754;28;20017;-73
2023/01/14 08:36:44;;;;;;;18.08;2.40;;;;;;;7.64;96.11;100346.69;5223781;28;20397;-74
2023/01/14 08:39:15;;;;;;;12.13;2.10;;;;;;;7.68;95.58;100337.88;5247288;22;20028;-71
2023/01/14 08:41:45;;;;;;;13.75;2.00;;;;;;;7.73;95.78;100354.22;5223441;28;20504;-72
2023/01/14 08:44:16;;;;;;;15.95;2.17;;;;;;;7.67;96.59;100341.38;5213109;28;20052;-72
2023/01/14 08:46:46;;;;;;;10.23;1.88;;;;;;;7.74;95.23;100342.91;5204905;28;20117;-72
2023/01/14 08:49:16;;;;;;;13.38;1.80;;;;;;;7.77;96.28;100347.19;5222560;28;20062;-72
2023/01/14 08:51:47;;;;;;;10.35;2.10;;;;;;;7.69;96.49;100343.97;5208974;28;20048;-72
2023/01/14 08:54:17;;;;;;;14.20;2.05;;;;;;;7.68;98.24;100345.69;5207008;28;20353;-72
2023/01/14 08:56:48;;;;;;;11.88;1.83;;;;;;;7.65;100.00;100337.09;5204336;28;20033;-72
2023/01/14 08:59:18;;;;;;;9.20;1.70;;;;;;;7.53;99.49;100338.31;5213232;28;20066;-72
2023/01/14 09:01:48;;;;;;;12.43;2.42;;;;;;;7.57;99.77;100334.75;5207201;28;20060;-72
2023/01/14 09:04:19;;;;;;;14.73;2.17;;;;;;;7.52;99.26;100321.00;5200073;28;20375;-72
2023/01/14 09:18:06;;;;;;;12.60;2.08;;;;;;;7.63;98.03;100292.09;5196052;28;20094;-73
2023/01/14 09:20:39;;;;;;;14.93;1.90;;;;;;;7.71;98.59;100287.53;5200189;28;20025;-72
2023/01/14 09:23:10;;;;;;;17.05;2.28;;;;;;;7.62;97.05;100280.84;5202536;28;20091;-71
2023/01/14 09:25:40;;;;;;;18.73;2.90;;;;;;;7.65;97.57;100285.97;5202074;28;20052;-73
2023/01/14 09:28:11;;;;;;;13.40;2.45;;;;;;;7.78;97.30;100273.44;5202095;28;20038;-72
2023/01/14 09:30:41;;;;;;;17.05;2.67;;;;;;;7.71;97.53;100279.75;5204404;28;20047;-73
2023/01/14 09:33:12;;;;;;;15.52;2.38;;;;;;;7.82;96.09;100278.53;5199836;28;20092;-71
2023/01/14 09:35:42;;;;;;;14.90;2.22;;;;;;;7.80;96.79;100269.94;5199418;28;20029;-72
2023/01/14 09:38:13;;;;;;;13.90;2.63;;;;;;;7.90;97.51;100270.50;5203563;28;20691;-72
2023/01/14 09:40:43;;;;;;;13.60;2.13;;;;;;;7.85;96.25;100262.00;5210012;28;20075;-72
2023/01/14 09:43:16;;;;;;;16.67;2.20;;;;;;;7.83;96.76;100243.81;5213344;28;20064;-71
2023/01/14 09:45:56;;;;;;;11.32;1.80;;;;;;;7.91;96.02;100235.78;5213778;28;20021;-72
2023/01/14 09:48:30;;;;;;;15.20;2.22;;;;;;;7.90;96.28;100234.09;5195882;28;20061;-72
2023/01/14 09:51:26;;;;;;;13.07;2.10;;;;;;;7.87;96.66;100231.59;5210095;28;20049;-72
2023/01/14 09:54:05;;;;;;;19.37;2.90;;;;;;;7.85;96.12;100226.41;5206346;28;20038;-72
2023/01/14 09:57:03;;;;;;;14.18;2.05;;;;;;;8.00;94.04;100218.13;5210124;28;20302;-72
2023/01/14 09:59:53;;;;;;;13.02;2.08;;;;;;;8.12;95.01;100209.97;5209659;28;20028;-73
2023/01/14 10:02:32;;;;;;;15.05;2.50;;;;;;;8.21;93.64;100198.44;5186756;28;20056;-72
2023/01/14 10:05:14;;;;;;;16.55;2.20;;;;;;;8.24;94.62;100191.38;5205576;28;20036;-72
2023/01/14 10:07:45;;;;;;;14.70;2.10;;;;;;;8.17;92.93;100182.03;5210729;28;20037;-72
2023/01/14 10:10:24;;;;;;;12.00;1.75;;;;;;;8.17;93.08;100187.22;5212052;28;20021;-72
2023/01/14 10:12:57;;;;;;;15.32;2.15;;;;;;;8.25;92.89;100184.41;5208509;28;20120;-72
2023/01/14 10:15:51;;;;;;;11.25;2.15;;;;;;;8.27;92.01;100180.00;5211250;28;20029;-73
2023/01/14 10:18:29;;;;;;;15.25;2.50;;;;;;;8.28;92.93;100179.97;5203719;28;20049;-72
2023/01/14 10:21:02;;;;;;;14.95;2.00;;;;;;;8.29;91.29;100171.25;5209194;28;20037;-73
2023/01/14 10:23:37;;;;;;;11.93;2.08;;;;;;;8.38;93.60;100163.13;5194953;28;20033;-71
2023/01/14 10:26:13;;;;;;;17.35;2.00;;;;;;;8.39;92.58;100150.97;5217431;28;20036;-72
2023/01/14 10:28:50;;;;;;;12.82;2.20;;;;;;;8.44;92.31;100149.94;5209580;28;20506;-71
2023/01/14 10:31:32;;;;;;;11.43;1.83;;;;;;;8.37;93.03;100137.16;5201290;28;20035;-72
2023/01/14 10:34:02;;;;;;;15.65;2.13;;;;;;;8.23;93.66;100134.16;5198924;28;20084;-72
2023/01/14 10:36:35;;;;;;;10.65;1.98;;;;;;;8.28;93.45;100127.91;5210169;28;20307;-71
2023/01/14 10:39:07;;;;;;;13.40;1.70;;;;;;;8.24;94.23;100128.88;5211229;28;20099;-72
2023/01/14 10:41:50;;;;;;;15.25;2.53;;;;;;;8.22;94.56;100120.28;5206316;28;20383;-72
2023/01/14 10:44:27;;;;;;;14.38;2.10;;;;;;;8.22;95.69;100111.66;5209198;28;20061;-72
2023/01/14 10:47:02;;;;;;;12.63;2.03;;;;;;;8.18;94.66;100110.88;5208764;28;20159;-72
2023/01/14 10:49:44;;;;;;;11.23;1.70;;;;;;;8.18;95.22;100104.84;5211089;28;20049;-72
2023/01/14 10:52:24;;;;;;;16.63;1.70;;;;;;;8.26;94.58;100082.00;5213829;28;20021;-72
2023/01/14 10:55:12;;;;;;;15.18;2.78;;;;;;;8.32;94.89;100072.22;5205769;28;20076;-72
2023/01/14 10:57:45;;;;;;;12.35;1.90;;;;;;;8.32;94.59;100073.97;5208656;28;20471;-72
2023/01/14 11:00:30;;;;;;;16.13;2.50;;;;;;;8.29;96.34;100063.66;5213624;28;20498;-72
2023/01/14 11:03:03;;;;;;;10.18;1.65;;;;;;;8.25;96.12;100060.31;5205937;28;20057;-72
2023/01/14 11:05:37;;;;;;;11.23;2.03;;;;;;;8.39;97.12;100045.06;5207301;28;20128;-72
2023/01/14 11:08:13;;;;;;;11.75;2.20;;;;;;;8.23;96.03;100038.69;5207061;28;20083;-72
2023/01/14 11:10:45;;;;;;;12.57;1.80;;;;;;;8.31;95.46;100039.28;5209667;28;20032;-72
2023/01/14 11:13:41;;;;;;;12.40;1.88;;;;;;;8.24;97.59;100021.34;5221523;28;20382;-72
2023/01/14 11:16:21;;;;;;;15.23;2.25;;;;;;;8.23;98.55;100020.47;5210355;28;20209;-72
2023/01/14 11:18:55;;;;;;;13.15;2.00;;;;;;;8.25;97.88;100015.22;5214854;28;20040;-72
2023/01/14 11:21:29;;;;;;;14.55;2.00;;;;;;;8.21;98.97;100018.84;5212695;28;20103;-72
2023/01/14 11:24:03;;;;;;;9.80;1.73;;;;;;;8.13;97.08;100011.28;5211333;28;20087;-73
2023/01/14 11:26:37;;;;;;;13.90;2.00;;;;;;;8.17;98.41;100005.06;5213320;28;20036;-72
2023/01/14 11:29:24;;;;;;;12.45;2.20;;;;;;;8.05;100.00;100000.25;5209260;28;20167;-72
2023/01/14 11:32:03;;;;;;;13.73;1.92;;;;;;;8.17;100.00;99994.63;5207176;28;20511;-72
2023/01/14 11:34:38;;;;;;;12.18;2.22;;;;;;;8.06;100.00;99986.34;5210835;28;20039;-72
2023/01/14 11:37:13;;;;;;;9.00;1.60;;;;;;;8.04;100.00;99972.53;5213776;28;20053;-72
2023/01/14 11:39:59;;;;;;;10.15;1.88;;;;;;;7.96;100.00;99952.91;5189848;28;20032;-72
2023/01/14 11:42:37;;;;;;;12.68;1.65;;;;;;;7.86;100.00;99947.16;5204466;28;20037;-71
2023/01/14 11:45:07;;;;;;;10.52;1.73;;;;;;;7.76;100.00;99950.16;5212083;28;20475;-72
2023/01/14 11:47:56;;;;;;;11.20;1.90;;;;;;;7.81;100.00;99938.69;5218254;28;20041;-72
2023/01/14 11:50:29;;;;;;;10.25;1.90;;;;;;;7.86;100.00;99930.72;5210708;28;20043;-72
2023/01/14 11:53:18;;;;;;;15.30;2.10;;;;;;;7.76;100.00;99918.94;5211874;28;20552;-72
2023/01/14 11:55:50;;;;;;;13.02;1.98;;;;;;;7.74;100.00;99902.53;5217205;28;20374;-72
2023/01/14 11:58:30;;;;;;;10.30;1.70;;;;;;;7.81;100.00;99896.22;5208807;28;20285;-72
2023/01/14 12:01:15;;;;;;;9.68;1.90;;;;;;;7.74;100.00;99894.75;5208056;28;20436;-72
2023/01/14 12:04:01;;;;;;;13.93;2.10;;;;;;;7.81;100.00;99884.06;5210281;28;20498;-73
2023/01/14 12:06:48;;;;;;;13.48;1.92;;;;;;;7.76;100.00;99861.72;5208846;28;20041;-72
2023/01/14 12:09:29;;;;;;;13.68;1.90;;;;;;;7.81;100.00;99865.88;5207979;28;20039;-72
2023/01/14 12:12:06;;;;;;;10.95;1.77;;;;;;;7.87;100.00;99852.63;5206844;28;20037;-72
2023/01/14 12:17:49;;;;;;;10.85;1.65;;;;;;;7.91;100.00;99829.97;5215075;28;20047;-72
2023/01/14 12:20:25;;;;;;;11.63;1.70;;;;;;;7.88;100.00;99824.88;5208129;28;20021;-72
2023/01/14 12:23:03;;;;;;;12.02;2.05;;;;;;;7.88;100.00;99815.31;5204718;28;20131;-72
2023/01/14 12:25:39;;;;;;;11.15;2.00;;;;;;;7.92;100.00;99813.44;5202620;28;20060;-72
2023/01/14 12:28:12;;;;;;;7.70;1.60;;;;;;;7.94;100.00;99804.69;5202271;28;20044;-72
2023/01/14 12:30:51;;;;;;;8.50;1.70;;;;;;;7.90;100.00;99795.28;5206082;28;20036;-72
2023/01/14 12:33:30;;;;;;;7.40;1.27;;;;;;;7.99;100.00;99778.47;5213023;28;20048;-71
2023/01/14 12:36:14;;;;;;;8.35;1.75;;;;;;;7.94;100.00;99768.28;5214881;28;20031;-72